M/T Pazar — TCMC — position and weather

sailwx.info

Track history (hours):
 
Tides and Currents Weather Stations Pressure Air Temp Water Temp Dewpoint Dewpoint Depression Visibility Wind Speed Wind Dir Waves Ship Positions

M/T Pazar

Last reported at 2015-Jun-30 08:22 UTC. Time now 2015-Jun-30 10:04 UTC.
Position N 28°00' W 013°26'.

Length 85 m; draft 4.3 m.

Type: Tanker. MMSI: 271000251.

Date/timePositionNaut miles runAvg speedWind from/ knotsBaromVisibWave heightAir tempDewpointWater temp
2015-Jun-30 08:22N 28°00' W 013°26'8 9.6
2015-Jun-30 07:33N 27°54' W 013°32'9 9.5
2015-Jun-30 06:33N 27°47' W 013°39'11 9.1
2015-Jun-30 05:23N 27°39' W 013°47'7 8.2
2015-Jun-30 04:33N 27°32' W 013°47'9 9.1
2015-Jun-30 03:33N 27°24' W 013°53'45 9.1
2015-Jun-29 22:33N 26°46' W 014°19'9 9.2
2015-Jun-29 21:33N 26°38' W 014°25'10 9.0
2015-Jun-29 20:25N 26°29' W 014°31'  
Track history (hours):
 
Tides and Currents Weather Stations Pressure Air Temp Water Temp Dewpoint Dewpoint Depression Visibility Wind Speed Wind Dir Waves Ship Positions

M/T Pazar

Last reported at 2015-Jun-30 08:22 UTC. Time now 2015-Jun-30 10:04 UTC.
Position N 28°00' W 013°26'.

Length 85 m; draft 4.3 m.

Type: Tanker. MMSI: 271000251.

Date/timePositionNaut miles runAvg speedWind from/ knotsBaromVisibWave heightAir tempDewpointWater temp
2015-Jun-30 08:22N 28°00' W 013°26'8 9.6
2015-Jun-30 07:33N 27°54' W 013°32'9 9.5
2015-Jun-30 06:33N 27°47' W 013°39'11 9.1
2015-Jun-30 05:23N 27°39' W 013°47'7 8.2
2015-Jun-30 04:33N 27°32' W 013°47'9 9.1
2015-Jun-30 03:33N 27°24' W 013°53'45 9.1
2015-Jun-29 22:33N 26°46' W 014°19'9 9.2
2015-Jun-29 21:33N 26°38' W 014°25'10 9.0
2015-Jun-29 20:25N 26°29' W 014°31'  

Dump ship's entire track history